createdAt,value
2023-01-19T00:00:23.326Z,98512.16
2023-01-19T00:05:25.068Z,98508.94
2023-01-19T00:10:26.710Z,98512.81
2023-01-19T00:15:28.323Z,98515.56
2023-01-19T00:20:32.109Z,98517.13
2023-01-19T00:25:34.184Z,98525.16
2023-01-19T00:30:35.961Z,98530.56
2023-01-19T00:35:37.613Z,98525.78
2023-01-19T00:40:39.266Z,98531.53
2023-01-19T00:45:42.095Z,98532.88
2023-01-19T00:50:43.748Z,98537.09
2023-01-19T00:55:45.348Z,98558.94
2023-01-19T01:00:47.000Z,98552.88
2023-01-19T01:05:49.123Z,98559.53
2023-01-19T01:10:51.879Z,98554.28
2023-01-19T01:15:55.214Z,98558.16
2023-01-19T01:21:04.803Z,98562.56
2023-01-19T01:26:06.476Z,98574.56
2023-01-19T01:31:08.096Z,98566.44
2023-01-19T01:36:11.956Z,98568.78
2023-01-19T01:41:13.721Z,98576.47
2023-01-19T01:46:18.413Z,98564.97
2023-01-19T01:51:28.835Z,98580.34
2023-01-19T01:56:35.983Z,98580.31
2023-01-19T02:01:56.177Z,98583.56
2023-01-19T02:07:17.055Z,98582.00
2023-01-19T02:12:37.291Z,98583.66
2023-01-19T02:17:38.915Z,98593.84
2023-01-19T02:22:47.148Z,98592.50
2023-01-19T02:27:51.600Z,98603.94
2023-01-19T02:32:53.344Z,98610.59
2023-01-19T02:37:55.060Z,98617.38
2023-01-19T02:43:01.210Z,98612.81
2023-01-19T02:48:04.699Z,98615.78
2023-01-19T02:53:32.408Z,98612.69
2023-01-19T02:58:42.892Z,98615.69
2023-01-19T03:04:22.832Z,98618.78
2023-01-19T03:09:30.326Z,98620.28
2023-01-19T03:14:33.655Z,98619.34
2023-01-19T03:19:39.316Z,98621.44
2023-01-19T03:24:44.537Z,98635.88
2023-01-19T03:29:52.987Z,98646.25
2023-01-19T03:34:56.992Z,98658.00
2023-01-19T03:39:58.750Z,98653.88
2023-01-19T03:45:01.760Z,98652.53
2023-01-19T03:50:07.708Z,98652.41
2023-01-19T03:55:10.413Z,98655.81
2023-01-19T04:00:12.802Z,98657.25
2023-01-19T04:05:14.551Z,98662.03
2023-01-19T04:10:19.836Z,98662.00
2023-01-19T04:15:21.434Z,98666.69
2023-01-19T04:20:23.083Z,98657.81
2023-01-19T04:25:24.699Z,98646.59
2023-01-19T04:30:27.489Z,98649.63
2023-01-19T04:35:29.102Z,98642.91
2023-01-19T04:40:30.907Z,98651.63
2023-01-19T04:45:32.691Z,98661.00
2023-01-19T04:50:34.374Z,98666.09
2023-01-19T04:55:38.107Z,98661.81
2023-01-19T05:00:39.912Z,98657.13
2023-01-19T05:05:41.512Z,98659.06
2023-01-19T05:10:43.103Z,98657.53
2023-01-19T05:15:44.833Z,98659.09
2023-01-19T05:20:46.904Z,98658.06
2023-01-19T05:25:48.520Z,98667.28
2023-01-19T05:30:50.315Z,98661.00
2023-01-19T05:35:53.345Z,98654.50
2023-01-19T05:40:58.579Z,98656.88
2023-01-19T05:46:00.212Z,98650.22
2023-01-19T05:51:02.026Z,98647.09
2023-01-19T05:56:06.298Z,98651.78
2023-01-19T06:01:10.192Z,98660.84
2023-01-19T06:06:12.560Z,98663.44
2023-01-19T06:11:14.154Z,98655.13
2023-01-19T06:16:15.789Z,98658.31
2023-01-19T06:21:17.505Z,98672.69
2023-01-19T06:26:19.113Z,98678.53
2023-01-19T06:31:20.955Z,98692.38
2023-01-19T06:36:22.563Z,98701.38
2023-01-19T06:41:24.239Z,98717.41
2023-01-19T06:46:26.247Z,98713.66
2023-01-19T06:51:28.029Z,98721.50
2023-01-19T06:56:29.631Z,98727.81
2023-01-19T07:01:31.813Z,98729.97
2023-01-19T07:06:33.490Z,98723.63
2023-01-19T07:11:35.089Z,98727.91
2023-01-19T07:16:36.734Z,98726.94
2023-01-19T07:21:38.367Z,98736.47
2023-01-19T07:26:39.977Z,98731.19
2023-01-19T07:31:41.641Z,98738.28
2023-01-19T07:36:44.140Z,98741.97
2023-01-19T07:41:48.286Z,98746.06
2023-01-19T07:46:51.231Z,98752.44
2023-01-19T07:51:52.984Z,98757.38
2023-01-19T07:56:55.311Z,98756.13
2023-01-19T08:01:59.586Z,98762.19
2023-01-19T08:07:01.489Z,98760.25
2023-01-19T08:12:03.958Z,98769.13
2023-01-19T08:17:05.562Z,98766.34
2023-01-19T08:22:07.217Z,98781.66
2023-01-19T08:27:10.021Z,98778.50
2023-01-19T08:32:11.860Z,98781.50
2023-01-19T08:37:13.484Z,98774.91
2023-01-19T08:42:15.086Z,98779.03
2023-01-19T08:47:17.369Z,98780.25
2023-01-19T08:52:19.032Z,98786.91
2023-01-19T08:57:20.650Z,98781.50
2023-01-19T09:02:22.345Z,98784.56
2023-01-19T09:07:24.069Z,98777.59
2023-01-19T09:12:25.668Z,98779.03
2023-01-19T09:17:27.349Z,98775.03
2023-01-19T09:22:28.990Z,98776.53
2023-01-19T09:27:30.879Z,98784.75
2023-01-19T09:32:32.621Z,98787.56
2023-01-19T09:37:34.223Z,98787.13
2023-01-19T09:42:44.188Z,98775.09
2023-01-19T09:47:48.653Z,98782.00
2023-01-19T09:52:57.425Z,98774.84
2023-01-19T09:57:59.496Z,98771.28
2023-01-19T10:03:15.408Z,98772.63
2023-01-19T10:08:29.237Z,98767.09
2023-01-19T10:13:42.108Z,98765.66
2023-01-19T10:18:51.903Z,98759.97
2023-01-19T10:24:29.335Z,98758.47
2023-01-19T10:29:39.140Z,98753.31
2023-01-19T10:34:41.725Z,98758.50
2023-01-19T10:39:52.121Z,98759.28
2023-01-19T10:44:53.850Z,98748.47
2023-01-19T10:49:55.798Z,98738.22
2023-01-19T10:55:00.071Z,98743.31
2023-01-19T11:00:02.117Z,98732.94
2023-01-19T11:05:28.015Z,98733.13
2023-01-19T11:10:30.846Z,98740.78
2023-01-19T11:15:42.539Z,98733.44
2023-01-19T11:20:55.512Z,98734.09
2023-01-19T11:26:00.579Z,98739.09
2023-01-19T11:31:20.373Z,98723.59
2023-01-19T11:36:27.807Z,98724.25
2023-01-19T11:41:33.419Z,98727.19
2023-01-19T11:46:41.120Z,98729.84
2023-01-19T11:52:07.235Z,98722.72
2023-01-19T11:57:15.183Z,98741.09
2023-01-19T12:02:32.054Z,98740.00
2023-01-19T12:07:36.167Z,98735.91
2023-01-19T12:12:40.523Z,98740.09
2023-01-19T12:17:49.229Z,98738.03
2023-01-19T12:22:59.874Z,98733.97
2023-01-19T12:28:02.724Z,98729.25
2023-01-19T12:33:32.743Z,98731.75
2023-01-19T12:38:54.513Z,98732.94
2023-01-19T12:44:16.079Z,98737.25
2023-01-19T12:49:38.900Z,98730.63
2023-01-19T12:54:49.615Z,98733.88
2023-01-19T13:00:01.697Z,98736.38
2023-01-19T13:05:32.831Z,98739.03
2023-01-19T13:10:53.889Z,98727.69
2023-01-19T13:15:59.909Z,98724.28
2023-01-19T13:21:05.479Z,98720.53
2023-01-19T13:26:11.552Z,98722.88
2023-01-19T13:31:14.049Z,98716.50
2023-01-19T13:36:27.917Z,98712.38
2023-01-19T13:41:35.068Z,98723.56
2023-01-19T13:46:38.700Z,98721.25
2023-01-19T13:51:40.401Z,98717.81
2023-01-19T13:56:47.337Z,98721.00
2023-01-19T14:01:51.235Z,98733.75
2023-01-19T14:06:55.771Z,98721.09
2023-01-19T14:12:09.430Z,98727.94
2023-01-19T14:17:29.457Z,98732.50
2023-01-19T14:22:45.614Z,98736.03
2023-01-19T14:27:47.213Z,98739.53
2023-01-19T14:32:48.894Z,98745.78
2023-01-19T14:37:52.010Z,98738.94
2023-01-19T14:43:03.323Z,98733.63
2023-01-19T14:48:13.142Z,98732.66
2023-01-19T14:53:16.375Z,98733.78
2023-01-19T14:58:24.442Z,98735.13
2023-01-19T15:03:43.619Z,98739.75
2023-01-19T15:08:48.854Z,98738.13
2023-01-19T15:13:51.141Z,98753.13
2023-01-19T15:18:52.845Z,98752.88
2023-01-19T15:23:55.779Z,98762.50
2023-01-19T15:28:57.532Z,98772.25
2023-01-19T15:33:59.172Z,98780.72
2023-01-19T15:39:00.759Z,98786.22
2023-01-19T15:44:02.428Z,98787.53
2023-01-19T15:49:05.783Z,98800.44
2023-01-19T15:54:13.775Z,98800.53
2023-01-19T15:59:15.418Z,98801.78
2023-01-19T16:04:18.128Z,98802.72
2023-01-19T16:09:20.200Z,98810.66
2023-01-19T16:14:21.814Z,98815.84
2023-01-19T16:19:23.503Z,98819.25
2023-01-19T16:24:25.791Z,98813.03
2023-01-19T16:29:27.407Z,98835.31
2023-01-19T16:34:29.107Z,98825.09
2023-01-19T16:39:30.745Z,98828.13
2023-01-19T16:44:32.380Z,98833.47
2023-01-19T16:49:34.189Z,98835.34
2023-01-19T16:54:36.963Z,98843.88
2023-01-19T16:59:39.905Z,98832.59
2023-01-19T17:04:41.531Z,98837.75
2023-01-19T17:09:43.122Z,98833.03
2023-01-19T17:14:47.321Z,98838.28
2023-01-19T17:19:48.994Z,98839.34
2023-01-19T17:24:50.596Z,98842.63
2023-01-19T17:29:52.221Z,98843.34
2023-01-19T17:34:53.831Z,98852.94
2023-01-19T17:39:55.934Z,98867.75
2023-01-19T17:44:57.607Z,98868.53
2023-01-19T17:50:00.426Z,98861.66
2023-01-19T17:55:02.280Z,98868.81
2023-01-19T18:00:07.916Z,98871.00
2023-01-19T18:05:14.745Z,98874.47
2023-01-19T18:10:17.065Z,98880.66
2023-01-19T18:15:18.855Z,98881.41
2023-01-19T18:20:20.461Z,98884.25
2023-01-19T18:25:22.105Z,98884.56
2023-01-19T18:30:24.034Z,98895.47
2023-01-19T18:35:26.058Z,98889.78
2023-01-19T18:40:27.693Z,98876.88
2023-01-19T18:45:29.291Z,98886.59
2023-01-19T18:50:30.953Z,98890.94
2023-01-19T18:55:32.554Z,98894.41
2023-01-19T19:00:34.246Z,98887.03
2023-01-19T19:05:36.879Z,98891.78
2023-01-19T19:10:40.799Z,98905.34
2023-01-19T19:15:44.379Z,98911.75
2023-01-19T19:20:46.069Z,98903.56
2023-01-19T19:25:47.766Z,98916.78
2023-01-19T19:30:52.594Z,98911.38
2023-01-19T19:35:58.224Z,98913.31
2023-01-19T19:41:05.130Z,98910.53
2023-01-19T19:46:08.801Z,98931.59
2023-01-19T19:51:18.978Z,98927.38
2023-01-19T19:56:23.285Z,98927.00
2023-01-19T20:01:32.658Z,98931.28
2023-01-19T20:06:38.925Z,98939.53
2023-01-19T20:11:41.895Z,98936.75
2023-01-19T20:16:43.965Z,98953.31
2023-01-19T20:21:45.631Z,98956.94
2023-01-19T20:26:50.430Z,98965.47
2023-01-19T20:31:54.899Z,98959.06
2023-01-19T20:36:56.645Z,98957.25
2023-01-19T20:41:58.254Z,98967.84
2023-01-19T20:46:59.913Z,98962.28
2023-01-19T20:52:02.167Z,98964.78
2023-01-19T20:57:03.790Z,98969.44
2023-01-19T21:02:08.068Z,98974.31
2023-01-19T21:07:10.037Z,98990.31
2023-01-19T21:12:11.865Z,98992.97
2023-01-19T21:17:13.476Z,98994.94
2023-01-19T21:22:15.107Z,99005.53
2023-01-19T21:27:16.747Z,99009.75
2023-01-19T21:32:18.518Z,99003.91
2023-01-19T21:37:20.216Z,99012.28
2023-01-19T21:42:21.833Z,99018.97
2023-01-19T21:47:23.457Z,99021.19
2023-01-19T21:52:25.063Z,99018.28
2023-01-19T21:57:26.808Z,99021.34
2023-01-19T22:02:38.331Z,99025.94
2023-01-19T22:07:40.648Z,99027.88
2023-01-19T22:12:42.287Z,99026.91
2023-01-19T22:17:43.892Z,99030.69
2023-01-19T22:22:45.480Z,99039.06
2023-01-19T22:27:47.066Z,99043.09
2023-01-19T22:32:48.748Z,99044.22
2023-01-19T22:37:50.364Z,99043.94
2023-01-19T22:42:51.952Z,99050.75
2023-01-19T22:47:53.560Z,99047.13
2023-01-19T22:52:55.842Z,99046.88
2023-01-19T22:57:57.423Z,99043.75
2023-01-19T23:02:59.051Z,99038.66
2023-01-19T23:08:00.702Z,99049.66
2023-01-19T23:13:02.309Z,99042.91
2023-01-19T23:18:03.949Z,99051.16
2023-01-19T23:23:05.772Z,99049.59
2023-01-19T23:28:07.866Z,99054.84
2023-01-19T23:33:09.454Z,99050.09
2023-01-19T23:38:11.042Z,99051.03
2023-01-19T23:43:12.730Z,99046.69
2023-01-19T23:48:14.361Z,99041.28
2023-01-19T23:53:15.957Z,99035.16
2023-01-19T23:58:17.567Z,99046.94
